Time;durP1;ratioP1;P1;durP2;ratioP2;P2;SDS_P1;SDS_P2;PMS_P1;PMS_P2;Temp;Humidity;BMP_temperature;BMP_pressure;BME280_temperature;BME280_humidity;BME280_pressure;Samples;Min_cycle;Max_cycle;Signal;HPM_P1;HPM_P2
2022/09/08 00:00:23;;;;;;;1.50;0.90;;;20.10;98.20;;;;;;5059625;28;20478;-77
2022/09/08 00:02:51;;;;;;;1.47;0.90;;;20.10;98.20;;;;;;5046896;28;20519;-78
2022/09/08 00:05:29;;;;;;;1.40;0.90;;;20.10;98.20;;;;;;5058810;28;20533;-78
2022/09/08 00:08:04;;;;;;;1.50;0.90;;;20.20;98.20;;;;;;5048241;28;20478;-78
2022/09/08 00:10:40;;;;;;;1.80;1.47;;;20.20;98.20;;;;;;5049192;28;20513;-78
2022/09/08 00:13:09;;;;;;;1.47;0.97;;;20.20;98.20;;;;;;5045321;28;20544;-76
2022/09/08 00:15:38;;;;;;;1.40;0.90;;;20.20;98.20;;;;;;5055196;28;20834;-77
2022/09/08 00:18:12;;;;;;;1.43;0.90;;;20.30;98.20;;;;;;5048562;28;20494;-78
2022/09/08 00:20:40;;;;;;;1.50;0.90;;;20.30;98.20;;;;;;5060054;28;20486;-77
2022/09/08 00:23:11;;;;;;;1.47;0.90;;;20.30;98.20;;;;;;5046051;28;21032;-77
2022/09/08 00:25:38;;;;;;;1.47;0.90;;;20.30;98.20;;;;;;5051975;28;20529;-77
2022/09/08 00:28:06;;;;;;;1.40;0.90;;;20.30;98.20;;;;;;5063697;28;20508;-77
2022/09/08 00:30:34;;;;;;;1.50;0.90;;;20.30;98.20;;;;;;5056677;28;20482;-77
2022/09/08 00:33:02;;;;;;;1.40;0.87;;;20.20;98.20;;;;;;5047335;28;20959;-77
2022/09/08 00:35:29;;;;;;;1.43;0.90;;;20.20;98.20;;;;;;5053384;28;20497;-76
2022/09/08 00:37:57;;;;;;;1.43;0.90;;;20.20;98.20;;;;;;5045845;28;20479;-77
2022/09/08 00:40:29;;;;;;;1.47;0.90;;;20.20;98.20;;;;;;5057650;28;20482;-76
2022/09/08 00:43:01;;;;;;;1.50;0.90;;;20.10;98.20;;;;;;5042358;28;20510;-78
2022/09/08 00:45:34;;;;;;;1.50;0.90;;;20.20;98.20;;;;;;5050999;28;20459;-77
2022/09/08 00:50:47;;;;;;;1.47;0.90;;;20.20;98.20;;;;;;5054724;28;20795;-76
2022/09/08 00:53:18;;;;;;;1.47;0.90;;;20.10;98.20;;;;;;5043427;28;20467;-76
2022/09/08 00:55:48;;;;;;;1.47;0.90;;;20.10;98.20;;;;;;5052740;28;20483;-76
2022/09/08 00:58:22;;;;;;;1.43;0.90;;;20.10;98.20;;;;;;5044549;28;20474;-76
2022/09/08 01:00:52;;;;;;;1.50;0.90;;;20.10;98.20;;;;;;5048777;28;20557;-77
2022/09/08 01:03:25;;;;;;;1.43;0.90;;;20.10;98.20;;;;;;5055795;28;20523;-77
2022/09/08 01:06:00;;;;;;;1.43;0.90;;;20.00;98.20;;;;;;5046137;28;20473;-76
2022/09/08 01:14:16;;;;;;;1.50;1.20;;;20.00;98.20;;;;;;5056154;28;20972;-77
2022/09/08 01:16:48;;;;;;;1.43;0.90;;;20.00;98.20;;;;;;5048125;28;20504;-78
2022/09/08 01:19:23;;;;;;;1.47;0.90;;;20.00;98.20;;;;;;5053958;28;20505;-76
2022/09/08 01:22:11;;;;;;;1.50;0.90;;;20.00;98.20;;;;;;5043753;28;20507;-76
2022/09/08 01:24:47;;;;;;;1.50;1.00;;;20.00;98.20;;;;;;5037631;28;20462;-76
2022/09/08 01:27:22;;;;;;;1.43;0.90;;;20.00;98.20;;;;;;5038793;28;20501;-77
2022/09/08 01:29:53;;;;;;;1.50;0.90;;;20.00;98.20;;;;;;5052733;28;20512;-77
2022/09/08 01:32:21;;;;;;;1.50;0.90;;;20.00;98.20;;;;;;5043912;28;21159;-77
2022/09/08 01:34:50;;;;;;;1.43;0.90;;;20.00;98.20;;;;;;5055846;28;20526;-77
2022/09/08 01:37:17;;;;;;;1.40;0.90;;;20.00;98.20;;;;;;5044942;28;20474;-77
2022/09/08 01:39:46;;;;;;;1.43;0.90;;;20.00;98.20;;;;;;5056264;28;20490;-77
2022/09/08 01:42:13;;;;;;;1.50;0.90;;;20.10;98.20;;;;;;5042529;28;20489;-77
2022/09/08 01:44:44;;;;;;;1.43;0.90;;;20.10;98.20;;;;;;5056983;28;20477;-77
2022/09/08 01:47:12;;;;;;;1.43;0.90;;;20.10;98.20;;;;;;5044800;28;20489;-77
2022/09/08 01:49:40;;;;;;;1.47;0.90;;;20.10;98.20;;;;;;5054167;28;20482;-77
2022/09/08 01:52:08;;;;;;;1.47;0.90;;;20.10;98.20;;;;;;5042489;28;20486;-77
2022/09/08 01:54:35;;;;;;;1.43;0.90;;;20.20;98.20;;;;;;5043276;28;20463;-75
2022/09/08 01:57:04;;;;;;;1.43;0.90;;;20.20;98.20;;;;;;5051701;28;20838;-76
2022/09/08 01:59:32;;;;;;;1.40;0.90;;;20.20;98.20;;;;;;5062212;28;20481;-76
2022/09/08 02:02:04;;;;;;;1.43;0.90;;;20.20;98.20;;;;;;5046207;28;20482;-77
2022/09/08 02:04:31;;;;;;;1.43;0.90;;;20.20;98.20;;;;;;5055042;28;20513;-76
2022/09/08 02:07:00;;;;;;;1.47;0.90;;;20.10;98.20;;;;;;5034580;28;20487;-77
2022/09/08 02:09:27;;;;;;;1.43;0.90;;;20.10;98.20;;;;;;5058658;28;21000;-76
2022/09/08 02:11:54;;;;;;;1.47;0.90;;;20.10;98.20;;;;;;5044367;28;20490;-78
2022/09/08 02:14:22;;;;;;;1.40;0.90;;;20.00;98.20;;;;;;5052998;28;20534;-77
2022/09/08 02:16:49;;;;;;;1.40;0.90;;;20.00;98.20;;;;;;5041528;28;20525;-76
2022/09/08 02:19:17;;;;;;;1.43;0.90;;;20.00;98.20;;;;;;5052280;28;20520;-76
2022/09/08 02:21:44;;;;;;;1.50;1.10;;;19.90;98.20;;;;;;5044614;28;20521;-77
2022/09/08 02:24:15;;;;;;;1.47;0.90;;;19.90;98.20;;;;;;5046823;28;20494;-77
2022/09/08 02:26:42;;;;;;;1.50;1.00;;;19.90;98.20;;;;;;5040646;28;20508;-77
2022/09/08 02:29:13;;;;;;;1.47;1.00;;;19.80;98.20;;;;;;5057215;28;20489;-78
2022/09/08 02:32:04;;;;;;;1.47;0.90;;;19.90;98.20;;;;;;5048846;28;20508;-77
2022/09/08 02:34:33;;;;;;;1.47;0.90;;;19.80;98.20;;;;;;5042636;28;20472;-77
2022/09/08 02:37:02;;;;;;;1.43;0.90;;;19.80;98.20;;;;;;5049599;28;20549;-79
2022/09/08 02:39:30;;;;;;;1.47;0.90;;;19.80;98.20;;;;;;5061249;28;20493;-80
2022/09/08 02:41:58;;;;;;;1.40;0.90;;;19.70;98.20;;;;;;5055985;28;20482;-79
2022/09/08 02:44:29;;;;;;;1.50;0.90;;;19.70;98.20;;;;;;5065496;28;20481;-80
2022/09/08 02:47:00;;;;;;;1.50;0.90;;;19.70;98.20;;;;;;5063094;28;20484;-80
2022/09/08 02:49:30;;;;;;;1.50;0.90;;;19.70;98.20;;;;;;5062501;28;20516;-80
2022/09/08 02:52:02;;;;;;;1.47;0.90;;;19.70;98.20;;;;;;5045829;28;20544;-80
2022/09/08 02:54:33;;;;;;;1.50;0.90;;;19.70;98.20;;;;;;5064946;28;20458;-80
2022/09/08 02:57:01;;;;;;;1.43;0.90;;;19.70;98.20;;;;;;5051937;28;20505;-81
2022/09/08 02:59:31;;;;;;;1.47;0.90;;;19.70;98.20;;;;;;5065981;28;20484;-78
2022/09/08 03:01:59;;;;;;;1.50;1.00;;;19.60;98.20;;;;;;5044509;28;20510;-80
2022/09/08 03:04:49;;;;;;;1.47;0.90;;;19.50;98.20;;;;;;5060940;28;20474;-77
2022/09/08 03:07:19;;;;;;;1.50;0.90;;;19.50;98.20;;;;;;5045269;28;20487;-77
2022/09/08 03:09:49;;;;;;;1.50;0.90;;;19.50;98.20;;;;;;5063757;28;21077;-79
2022/09/08 03:12:17;;;;;;;1.47;0.90;;;19.40;98.20;;;;;;5053625;28;20474;-78
2022/09/08 03:14:46;;;;;;;1.50;1.00;;;19.30;98.20;;;;;;5063634;28;20462;-78
2022/09/08 03:17:14;;;;;;;1.50;1.10;;;19.10;98.20;;;;;;5049755;28;20482;-77
2022/09/08 03:19:55;;;;;;;1.47;0.90;;;19.10;98.20;;;;;;5064776;28;21024;-76
2022/09/08 03:22:25;;;;;;;1.40;0.90;;;19.10;98.20;;;;;;5070805;28;20484;-76
2022/09/08 03:24:53;;;;;;;1.50;0.97;;;19.10;98.20;;;;;;5054986;28;20506;-77
2022/09/08 03:27:21;;;;;;;1.47;0.90;;;19.00;98.20;;;;;;5058610;28;20493;-76
2022/09/08 03:29:49;;;;;;;1.60;1.47;;;19.00;98.20;;;;;;5064359;28;20905;-76
2022/09/08 03:32:27;;;;;;;1.50;0.90;;;19.00;98.20;;;;;;5023223;28;20550;-76
2022/09/08 03:34:55;;;;;;;1.50;1.07;;;19.00;98.20;;;;;;5043372;28;20554;-78
2022/09/08 03:37:29;;;;;;;1.50;0.90;;;19.00;98.20;;;;;;5063114;28;20486;-78
2022/09/08 03:40:29;;;;;;;1.50;1.00;;;19.00;98.20;;;;;;5046963;28;20477;-77
2022/09/08 03:42:57;;;;;;;1.50;0.90;;;18.90;98.20;;;;;;5040035;28;20478;-77
2022/09/08 03:45:29;;;;;;;1.50;1.00;;;18.90;98.20;;;;;;5060851;28;20549;-77
2022/09/08 03:51:32;;;;;;;1.50;0.90;;;18.80;98.20;;;;;;5033202;28;20475;-75
2022/09/08 03:57:04;;;;;;;1.50;0.90;;;18.70;98.20;;;;;;5042965;28;20490;-76
2022/09/08 03:59:37;;;;;;;1.50;0.90;;;18.70;98.20;;;;;;5053876;28;20495;-77
2022/09/08 04:02:14;;;;;;;1.50;0.90;;;18.70;98.20;;;;;;5040727;28;20482;-76
2022/09/08 04:07:29;;;;;;;1.50;0.90;;;18.70;98.20;;;;;;5031264;28;20506;-78
2022/09/08 04:10:05;;;;;;;1.40;0.90;;;18.70;98.20;;;;;;5055527;28;20490;-76
2022/09/08 04:12:36;;;;;;;1.43;0.90;;;18.70;98.20;;;;;;5043105;28;20485;-77
2022/09/08 04:15:35;;;;;;;1.50;0.90;;;18.70;98.20;;;;;;5053567;28;20454;-78
2022/09/08 04:18:25;;;;;;;1.40;0.90;;;18.70;98.20;;;;;;4980205;28;20477;-77
2022/09/08 04:21:12;;;;;;;1.50;1.10;;;18.50;98.20;;;;;;5025313;28;20467;-76
2022/09/08 04:23:50;;;;;;;1.50;0.90;;;18.50;98.20;;;;;;5062998;28;20484;-76
2022/09/08 04:26:49;;;;;;;1.50;1.10;;;18.50;98.20;;;;;;5037886;28;20492;-77
2022/09/08 04:29:21;;;;;;;1.40;0.90;;;18.50;98.20;;;;;;5047250;28;20518;-77
2022/09/08 04:32:19;;;;;;;1.50;0.90;;;18.60;98.20;;;;;;5026152;28;20561;-76
2022/09/08 04:35:42;;;;;;;1.50;1.00;;;18.70;98.20;;;;;;5013357;28;20486;-75
2022/09/08 04:38:46;;;;;;;1.50;0.90;;;18.70;98.20;;;;;;5041287;28;20494;-76
2022/09/08 04:41:34;;;;;;;;;;;;;;;;;;;;;
2022/09/08 04:44:03;;;;;;;1.50;1.00;;;18.60;98.20;;;;;;4970289;28;20554;-76
2022/09/08 04:46:32;;;;;;;1.40;0.90;;;18.50;98.20;;;;;;4997464;28;21024;-75
2022/09/08 04:49:01;;;;;;;1.50;0.90;;;18.50;98.20;;;;;;5067239;28;20553;-75
2022/09/08 04:51:31;;;;;;;1.50;1.00;;;18.50;98.20;;;;;;5043346;28;20479;-76
2022/09/08 04:54:14;;;;;;;1.50;0.90;;;18.40;98.20;;;;;;5053903;28;20469;-75
2022/09/08 04:56:44;;;;;;;1.50;0.90;;;18.40;98.20;;;;;;5039605;28;20482;-75
2022/09/08 04:59:19;;;;;;;1.50;0.90;;;18.40;98.20;;;;;;5056441;28;20506;-76
2022/09/08 05:02:26;;;;;;;1.50;1.00;;;18.40;98.20;;;;;;5045328;28;20482;-75
2022/09/08 05:05:02;;;;;;;1.50;0.90;;;18.40;98.20;;;;;;5055113;28;20596;-75
2022/09/08 05:07:43;;;;;;;1.50;0.90;;;18.40;98.20;;;;;;5047366;28;20485;-78
2022/09/08 05:10:15;;;;;;;1.50;0.90;;;18.40;98.20;;;;;;5058391;28;20549;-75
2022/09/08 05:12:54;;;;;;;1.50;0.90;;;18.50;98.20;;;;;;5036344;28;20540;-76
2022/09/08 05:15:25;;;;;;;1.50;1.00;;;18.50;98.20;;;;;;5041173;28;20485;-76
2022/09/08 05:18:10;;;;;;;;;;;;;;;;;;;;;
2022/09/08 05:21:11;;;;;;;1.50;1.00;;;18.60;98.20;;;;;;5053565;28;20483;-75
2022/09/08 05:23:40;;;;;;;1.50;0.90;;;18.60;98.20;;;;;;5040622;28;20561;-76
2022/09/08 05:26:09;;;;;;;1.70;1.33;;;18.50;98.20;;;;;;5044239;28;20456;-77
2022/09/08 05:28:41;;;;;;;1.50;0.90;;;18.50;98.20;;;;;;5055441;28;20545;-76
2022/09/08 05:31:17;;;;;;;1.60;1.20;;;18.40;98.20;;;;;;5047937;28;20475;-77
2022/09/08 05:33:58;;;;;;;1.50;0.90;;;18.40;98.20;;;;;;5057357;28;20466;-77
2022/09/08 05:37:10;;;;;;;1.40;0.90;;;18.50;98.20;;;;;;5046821;28;20532;-77
2022/09/08 05:39:46;;;;;;;1.43;0.90;;;18.50;98.20;;;;;;5026451;28;20482;-77
2022/09/08 05:45:10;;;;;;;;;;;;;;;;;;;;;
2022/09/08 05:47:38;;;;;;;1.50;0.90;;;18.70;98.20;;;;;;5055604;28;20481;-76
2022/09/08 05:50:14;;;;;;;1.50;1.00;;;18.70;98.20;;;;;;5050080;28;21125;-77
2022/09/08 05:52:50;;;;;;;1.50;0.90;;;18.80;98.20;;;;;;5036206;28;20486;-76
2022/09/08 05:55:28;;;;;;;1.50;1.00;;;18.80;98.20;;;;;;5049737;28;20459;-76
2022/09/08 06:03:51;;;;;;;1.50;0.90;;;18.90;98.20;;;;;;5007455;28;20497;-76
2022/09/08 06:06:23;;;;;;;1.43;0.90;;;18.90;98.20;;;;;;5046818;28;20474;-75
2022/09/08 06:08:54;;;;;;;1.50;0.90;;;18.90;98.20;;;;;;5057436;28;20474;-76
2022/09/08 06:11:23;;;;;;;1.47;0.90;;;18.80;98.20;;;;;;5049134;28;20478;-77
2022/09/08 06:14:10;;;;;;;1.50;1.00;;;18.70;98.20;;;;;;5056529;28;20461;-76
2022/09/08 06:16:46;;;;;;;1.50;0.90;;;18.70;98.20;;;;;;5049431;28;20546;-76
2022/09/08 06:19:31;;;;;;;1.50;0.97;;;18.60;98.20;;;;;;5051227;28;20712;-77
2022/09/08 06:22:17;;;;;;;1.50;0.90;;;18.60;98.20;;;;;;5042799;28;20489;-77
2022/09/08 06:25:11;;;;;;;1.50;0.90;;;18.60;98.20;;;;;;5058246;28;20509;-77
2022/09/08 06:27:49;;;;;;;1.50;0.90;;;18.60;98.20;;;;;;5062322;28;20503;-75
2022/09/08 06:31:07;;;;;;;1.50;1.00;;;18.60;98.20;;;;;;5060248;28;20860;-77
2022/09/08 06:34:09;;;;;;;1.50;0.90;;;18.60;98.20;;;;;;4994528;28;20517;-77
2022/09/08 06:37:10;;;;;;;1.40;0.90;;;18.60;98.20;;;;;;5034221;28;20479;-77
2022/09/08 06:39:48;;;;;;;1.47;0.90;;;18.70;98.20;;;;;;5061848;28;20486;-77
2022/09/08 06:42:57;;;;;;;1.47;0.90;;;18.60;98.20;;;;;;5060463;28;20473;-76
2022/09/08 06:45:46;;;;;;;1.43;0.90;;;18.60;98.20;;;;;;5048996;28;20458;-75
2022/09/08 06:48:48;;;;;;;1.50;0.90;;;18.60;98.20;;;;;;5031931;28;20447;-76
2022/09/08 06:51:41;;;;;;;1.47;0.90;;;18.60;98.20;;;;;;5031717;28;21097;-76
2022/09/08 06:54:37;;;;;;;1.50;0.90;;;18.60;98.20;;;;;;5052212;28;20459;-76
2022/09/08 06:57:16;;;;;;;1.50;0.90;;;18.60;98.20;;;;;;5033936;28;20500;-76
2022/09/08 06:59:55;;;;;;;1.47;0.90;;;18.50;98.20;;;;;;5051325;28;20493;-76
2022/09/08 07:03:00;;;;;;;1.50;0.90;;;18.50;98.20;;;;;;5042421;28;20485;-76
2022/09/08 07:05:59;;;;;;;1.50;0.90;;;18.50;98.20;;;;;;5063210;28;20563;-77
2022/09/08 07:08:59;;;;;;;1.50;1.00;;;18.50;98.20;;;;;;5035557;28;20470;-77
2022/09/08 07:11:41;;;;;;;1.50;0.90;;;18.50;98.20;;;;;;5041994;28;20482;-76
2022/09/08 07:14:45;;;;;;;1.50;0.90;;;18.50;98.20;;;;;;5057762;28;20513;-76
2022/09/08 07:17:21;;;;;;;1.50;1.00;;;18.50;98.20;;;;;;5043280;28;20591;-76
2022/09/08 07:19:50;;;;;;;1.50;0.90;;;18.50;98.20;;;;;;5056096;28;21008;-78
2022/09/08 07:22:28;;;;;;;1.47;0.90;;;18.50;98.20;;;;;;5046322;28;20521;-78
2022/09/08 07:25:09;;;;;;;1.50;0.90;;;18.50;98.20;;;;;;5055913;28;20570;-78
2022/09/08 07:27:40;;;;;;;1.50;0.90;;;18.50;98.20;;;;;;5059302;28;20508;-78
2022/09/08 07:30:43;;;;;;;1.47;0.90;;;18.50;98.20;;;;;;5053858;28;20506;-77
2022/09/08 07:33:29;;;;;;;1.50;1.00;;;18.50;98.20;;;;;;5053290;28;20541;-76
2022/09/08 07:36:23;;;;;;;1.47;0.90;;;18.50;98.20;;;;;;5050218;28;20455;-76
2022/09/08 07:38:53;;;;;;;1.43;0.90;;;18.50;98.20;;;;;;5059492;28;20478;-75
2022/09/08 07:45:05;;;;;;;1.43;0.90;;;18.60;98.20;;;;;;4953295;29;20783;-77
2022/09/08 07:51:12;;;;;;;1.50;0.90;;;18.60;98.20;;;;;;5024029;28;20578;-77
2022/09/08 07:54:10;;;;;;;1.47;0.90;;;18.70;98.20;;;;;;4998437;28;21053;-76
2022/09/08 07:59:40;;;;;;;1.43;0.90;;;18.70;98.20;;;;;;5045209;28;20474;-76
2022/09/08 08:02:28;;;;;;;1.47;0.90;;;18.70;98.20;;;;;;5049254;28;20490;-75
2022/09/08 08:05:07;;;;;;;1.50;0.90;;;18.70;98.20;;;;;;5059454;28;21140;-75
2022/09/08 08:07:45;;;;;;;1.50;0.90;;;18.70;98.20;;;;;;5047057;28;20585;-74
2022/09/08 08:10:19;;;;;;;1.50;0.90;;;18.70;98.20;;;;;;5054954;28;20888;-74
2022/09/08 08:16:15;;;;;;;1.50;1.00;;;18.80;98.20;;;;;;5000792;28;20479;-76
2022/09/08 08:21:18;;;;;;;1.50;0.90;;;18.90;98.20;;;;;;5002367;28;21213;-73
2022/09/08 08:23:59;;;;;;;1.50;0.90;;;19.00;98.20;;;;;;5025193;28;20495;-73
2022/09/08 08:26:36;;;;;;;1.50;0.90;;;19.00;98.20;;;;;;5007998;28;20487;-75
2022/09/08 08:29:34;;;;;;;1.50;0.90;;;19.10;98.20;;;;;;5010842;28;20479;-75
2022/09/08 08:32:10;;;;;;;1.50;0.90;;;19.20;98.20;;;;;;5015801;28;20487;-75
2022/09/08 08:34:43;;;;;;;1.50;0.90;;;19.40;98.20;;;;;;5016519;28;20530;-75
2022/09/08 08:37:17;;;;;;;1.47;0.90;;;19.40;98.20;;;;;;4998356;28;20530;-75
2022/09/08 08:39:47;;;;;;;1.50;0.90;;;19.60;98.20;;;;;;5009101;28;20483;-76
2022/09/08 08:42:34;;;;;;;1.50;0.93;;;19.70;98.20;;;;;;5001354;28;20896;-74
2022/09/08 08:45:20;;;;;;;1.50;0.90;;;19.80;98.20;;;;;;5018634;28;20951;-76
2022/09/08 08:48:07;;;;;;;1.50;0.90;;;20.00;98.20;;;;;;5011819;28;20475;-75
2022/09/08 08:51:06;;;;;;;1.50;0.90;;;20.10;98.20;;;;;;5000649;28;20464;-75
2022/09/08 08:53:55;;;;;;;1.50;0.90;;;20.50;98.20;;;;;;5000884;28;20476;-74
2022/09/08 08:56:30;;;;;;;1.50;0.90;;;20.90;98.20;;;;;;4998615;28;20765;-75
2022/09/08 08:59:30;;;;;;;1.50;0.90;;;21.20;98.20;;;;;;5006518;28;20546;-74
2022/09/08 09:02:14;;;;;;;1.50;0.90;;;21.50;98.20;;;;;;4975790;28;20519;-74
2022/09/08 09:05:19;;;;;;;1.50;0.90;;;21.70;98.20;;;;;;4999571;28;20684;-75
2022/09/08 09:08:11;;;;;;;1.50;0.90;;;22.00;98.20;;;;;;5004738;28;20484;-74
2022/09/08 09:11:06;;;;;;;1.53;0.90;;;22.40;98.20;;;;;;5013222;28;20473;-75
2022/09/08 09:14:06;;;;;;;1.50;0.90;;;22.60;98.20;;;;;;4989692;28;20492;-75
2022/09/08 09:16:54;;;;;;;1.50;0.90;;;22.60;98.20;;;;;;4992631;28;20481;-76
2022/09/08 09:19:39;;;;;;;1.50;0.90;;;22.40;98.20;;;;;;4998336;28;20488;-74
2022/09/08 09:22:16;;;;;;;1.50;0.90;;;22.20;98.20;;;;;;5001259;28;21044;-76
2022/09/08 09:25:03;;;;;;;1.50;0.90;;;22.10;98.20;;;;;;5007307;28;20457;-76
2022/09/08 09:27:42;;;;;;;1.50;0.90;;;22.00;98.20;;;;;;5007273;28;21080;-74
2022/09/08 09:30:23;;;;;;;1.50;0.90;;;21.90;98.20;;;;;;4998251;28;20484;-75
2022/09/08 09:33:19;;;;;;;1.50;0.90;;;21.80;98.20;;;;;;5012285;28;20471;-76
2022/09/08 09:36:38;;;;;;;2.10;1.30;;;21.80;98.20;;;;;;5003412;28;20492;-75
2022/09/08 09:39:41;;;;;;;1.50;0.90;;;21.80;98.20;;;;;;4974636;28;20499;-77
2022/09/08 09:42:40;;;;;;;1.50;0.90;;;21.90;98.20;;;;;;4982373;28;20479;-76
2022/09/08 09:45:43;;;;;;;1.50;0.83;;;22.20;98.20;;;;;;5012269;28;20465;-75
2022/09/08 09:49:11;;;;;;;1.50;0.90;;;22.40;98.20;;;;;;4939426;28;21104;-76
2022/09/08 09:51:56;;;;;;;1.50;0.90;;;22.50;98.20;;;;;;4897489;29;20494;-75
2022/09/08 09:54:49;;;;;;;1.50;0.90;;;22.90;98.20;;;;;;5014454;28;20452;-75
2022/09/08 09:57:52;;;;;;;1.50;0.90;;;23.40;98.20;;;;;;5006137;28;20475;-76
2022/09/08 10:04:06;;;;;;;1.50;0.90;;;23.90;93.20;;;;;;5000206;28;20469;-75
2022/09/08 10:10:15;;;;;;;1.50;0.90;;;23.80;91.70;;;;;;5016207;28;20519;-77
2022/09/08 10:13:15;;;;;;;1.47;0.80;;;23.60;93.50;;;;;;5007540;28;20954;-74
2022/09/08 10:22:52;;;;;;;1.50;0.90;;;23.70;94.30;;;;;;5005362;28;20490;-76
2022/09/08 10:25:47;;;;;;;1.50;0.80;;;23.70;93.00;;;;;;5022568;28;20558;-77
2022/09/08 10:28:50;;;;;;;1.50;0.90;;;23.70;93.70;;;;;;5002970;28;20492;-77
2022/09/08 10:32:01;;;;;;;1.50;0.80;;;23.70;93.20;;;;;;5006878;28;20665;-76
2022/09/08 10:35:17;;;;;;;1.50;0.90;;;23.50;92.20;;;;;;5016589;28;20481;-75
2022/09/08 10:38:29;;;;;;;1.47;0.83;;;23.30;93.20;;;;;;4967040;28;20574;-76
2022/09/08 10:41:16;;;;;;;1.50;0.90;;;23.30;92.80;;;;;;5003494;28;21002;-76
2022/09/08 10:44:14;;;;;;;1.50;0.90;;;23.20;92.30;;;;;;5018236;28;20560;-77
2022/09/08 10:50:25;;;;;;;1.50;0.90;;;23.20;94.00;;;;;;5000592;28;20562;-77
2022/09/08 10:56:14;;;;;;;1.47;0.87;;;23.60;91.60;;;;;;5007366;28;20494;-76
2022/09/08 10:59:08;;;;;;;1.47;0.80;;;24.00;91.90;;;;;;5012472;28;20572;-77
2022/09/08 11:02:33;;;;;;;1.50;0.90;;;24.50;89.50;;;;;;5010702;28;20486;-77
2022/09/08 11:05:35;;;;;;;1.50;0.90;;;24.70;88.40;;;;;;5013151;28;20487;-76
2022/09/08 11:08:45;;;;;;;1.50;0.80;;;24.90;88.10;;;;;;5026174;28;20481;-76
2022/09/08 11:11:50;;;;;;;1.50;0.87;;;24.80;85.10;;;;;;5006049;28;20530;-77
2022/09/08 11:15:06;;;;;;;1.47;1.03;;;24.70;86.00;;;;;;5018190;28;20475;-76
2022/09/08 11:17:46;;;;;;;1.47;0.90;;;24.80;86.90;;;;;;4913064;29;20559;-75
2022/09/08 11:20:27;;;;;;;1.50;0.80;;;25.20;85.10;;;;;;4964659;28;20491;-77
2022/09/08 11:23:27;;;;;;;1.50;0.90;;;25.40;84.70;;;;;;5014834;28;20598;-77
2022/09/08 11:26:11;;;;;;;1.50;0.90;;;25.70;83.90;;;;;;5020012;28;20487;-76
2022/09/08 11:29:03;;;;;;;1.47;0.90;;;25.90;82.40;;;;;;5023142;28;20472;-75
2022/09/08 11:31:54;;;;;;;1.50;0.90;;;26.10;82.00;;;;;;5004112;28;20515;-77
2022/09/08 11:34:57;;;;;;;1.50;0.83;;;26.30;81.80;;;;;;5010127;28;21058;-77
2022/09/08 11:37:48;;;;;;;1.50;0.80;;;26.40;80.90;;;;;;5012285;28;20958;-76
2022/09/08 11:40:51;;;;;;;1.47;0.83;;;26.10;82.10;;;;;;5008419;28;20484;-77
2022/09/08 11:43:30;;;;;;;1.47;0.90;;;25.70;83.40;;;;;;5007515;28;20464;-79
2022/09/08 11:46:31;;;;;;;1.50;0.90;;;25.20;82.20;;;;;;4998891;28;20515;-76
2022/09/08 11:49:31;;;;;;;1.50;0.80;;;24.80;84.50;;;;;;5019669;28;20487;-76
2022/09/08 11:52:29;;;;;;;1.50;0.90;;;24.40;85.00;;;;;;5012016;28;20834;-77
2022/09/08 11:55:15;;;;;;;1.50;0.90;;;24.10;86.20;;;;;;5001449;28;20468;-76
2022/09/08 11:57:58;;;;;;;1.50;0.90;;;23.90;85.10;;;;;;5018688;28;20495;-76
2022/09/08 12:00:50;;;;;;;1.50;0.90;;;23.90;84.40;;;;;;5007148;28;20485;-76
2022/09/08 12:03:49;;;;;;;1.50;0.90;;;24.10;83.30;;;;;;5000416;28;20994;-76
2022/09/08 12:06:56;;;;;;;1.50;0.90;;;24.60;82.60;;;;;;5004701;28;20486;-75
2022/09/08 12:09:47;;;;;;;1.50;0.90;;;24.90;82.60;;;;;;5018036;28;20475;-76
2022/09/08 12:12:44;;;;;;;1.43;0.90;;;25.30;82.80;;;;;;5016140;28;20479;-76
2022/09/08 12:15:29;;;;;;;1.47;0.87;;;25.70;80.10;;;;;;5015120;28;20466;-76
2022/09/08 12:21:56;;;;;;;1.47;0.80;;;26.00;76.40;;;;;;5004947;28;21036;-77
2022/09/08 12:25:06;;;;;;;1.50;0.90;;;26.20;76.60;;;;;;4991032;28;20464;-75
2022/09/08 12:27:52;;;;;;;1.50;0.90;;;26.40;76.90;;;;;;4968088;28;20542;-76
2022/09/08 12:30:53;;;;;;;1.50;0.80;;;26.60;77.10;;;;;;5010452;28;20468;-77
2022/09/08 12:34:03;;;;;;;1.50;0.80;;;26.70;76.60;;;;;;4982806;28;20451;-76
2022/09/08 12:36:38;;;;;;;1.40;0.80;;;26.80;77.00;;;;;;4976244;28;20470;-77
2022/09/08 12:42:46;;;;;;;1.50;0.80;;;27.10;74.50;;;;;;5004073;28;20494;-77
2022/09/08 12:45:32;;;;;;;1.50;0.80;;;27.40;76.50;;;;;;5004806;28;20754;-77
2022/09/08 12:51:01;;;;;;;1.47;0.90;;;27.60;72.30;;;;;;5003220;28;20532;-77
2022/09/08 12:53:52;;;;;;;1.50;0.90;;;27.60;71.90;;;;;;5007856;28;20505;-76
2022/09/08 12:56:30;;;;;;;1.43;0.80;;;27.40;72.30;;;;;;5009049;28;20527;-76
2022/09/08 13:02:35;;;;;;;1.43;0.80;;;27.50;71.30;;;;;;5002516;28;20477;-77
2022/09/08 13:05:25;;;;;;;1.43;0.80;;;27.50;70.30;;;;;;5005199;28;20526;-78
2022/09/08 13:08:00;;;;;;;1.50;0.90;;;27.60;69.80;;;;;;5013806;28;20499;-77
2022/09/08 13:11:05;;;;;;;1.50;0.80;;;27.60;70.50;;;;;;5002385;28;20888;-78
2022/09/08 13:13:37;;;;;;;1.50;1.00;;;27.60;69.50;;;;;;4997101;28;20475;-76
2022/09/08 13:16:31;;;;;;;1.47;0.90;;;27.70;69.60;;;;;;4994169;28;21018;-76
2022/09/08 13:19:20;;;;;;;1.47;0.80;;;27.70;69.20;;;;;;5003683;28;20559;-77
2022/09/08 13:22:16;;;;;;;1.70;1.10;;;27.80;70.50;;;;;;5004371;28;20482;-76
2022/09/08 13:24:51;;;;;;;1.50;0.90;;;27.90;67.90;;;;;;5018373;28;20471;-76
2022/09/08 13:27:34;;;;;;;1.43;0.80;;;27.90;69.40;;;;;;5012758;28;20511;-78
2022/09/08 13:30:44;;;;;;;1.47;0.80;;;27.90;69.30;;;;;;5011165;28;20477;-77
2022/09/08 13:33:40;;;;;;;1.40;0.90;;;27.90;69.50;;;;;;5001357;28;20467;-77
2022/09/08 13:36:42;;;;;;;1.40;0.80;;;27.70;70.60;;;;;;4997158;28;20464;-77
2022/09/08 13:39:36;;;;;;;1.47;0.80;;;27.50;71.30;;;;;;5013353;28;20785;-76
2022/09/08 13:42:20;;;;;;;1.40;0.80;;;27.20;69.30;;;;;;5007946;28;20494;-76
2022/09/08 13:45:31;;;;;;;1.40;0.80;;;27.00;70.20;;;;;;5012566;28;20454;-78
2022/09/08 13:48:14;;;;;;;1.50;0.80;;;26.70;72.40;;;;;;5007637;28;20490;-78
2022/09/08 13:51:07;;;;;;;1.50;0.80;;;26.60;71.50;;;;;;5009881;28;20463;-75
2022/09/08 13:53:49;;;;;;;1.43;0.80;;;26.70;73.10;;;;;;4959331;28;20501;-75
2022/09/08 13:56:37;;;;;;;1.47;0.90;;;26.70;71.70;;;;;;5004200;28;20487;-77
2022/09/08 13:59:16;;;;;;;1.40;0.80;;;26.50;71.50;;;;;;5010236;28;20484;-77
2022/09/08 14:01:47;;;;;;;1.50;0.90;;;26.20;72.20;;;;;;5003639;28;20483;-77
2022/09/08 14:04:48;;;;;;;1.47;0.80;;;26.20;73.80;;;;;;5007413;28;20472;-76
2022/09/08 14:07:23;;;;;;;1.43;0.87;;;26.10;73.60;;;;;;5000805;28;20472;-76
2022/09/08 14:10:18;;;;;;;1.40;0.80;;;25.80;72.70;;;;;;5006015;28;20998;-77
2022/09/08 14:13:43;;;;;;;1.47;0.83;;;25.50;73.50;;;;;;5013677;28;20484;-78
2022/09/08 14:16:46;;;;;;;1.47;0.90;;;25.30;74.10;;;;;;5001569;28;20489;-76
2022/09/08 14:19:45;;;;;;;1.40;0.90;;;25.20;75.80;;;;;;4991662;28;20492;-78
2022/09/08 14:22:26;;;;;;;1.47;0.90;;;25.10;75.10;;;;;;4999758;28;20482;-77
2022/09/08 14:25:04;;;;;;;1.50;0.90;;;25.00;75.70;;;;;;5022233;28;20567;-78
2022/09/08 14:28:04;;;;;;;1.40;0.80;;;25.10;75.50;;;;;;5011733;28;20485;-76
2022/09/08 14:30:48;;;;;;;1.50;0.90;;;25.30;77.00;;;;;;5011317;28;20457;-76
2022/09/08 14:33:30;;;;;;;1.47;0.80;;;25.50;74.40;;;;;;5003506;28;20537;-76
2022/09/08 14:35:59;;;;;;;1.50;0.80;;;25.80;74.70;;;;;;4996558;28;20457;-77
2022/09/08 14:38:48;;;;;;;1.47;0.90;;;26.00;74.60;;;;;;5030716;28;20499;-78
2022/09/08 14:41:37;;;;;;;1.50;0.80;;;26.30;74.70;;;;;;5015156;28;20537;-77
2022/09/08 14:44:43;;;;;;;1.50;0.90;;;26.50;73.60;;;;;;5021331;28;20460;-77
2022/09/08 14:47:30;;;;;;;1.40;0.80;;;26.60;71.10;;;;;;5022264;28;20477;-77
2022/09/08 14:50:27;;;;;;;1.40;0.90;;;26.70;72.50;;;;;;5023350;28;20471;-77
2022/09/08 14:53:40;;;;;;;1.40;0.90;;;26.80;72.70;;;;;;5006972;28;20560;-78
2022/09/08 14:56:19;;;;;;;1.40;0.90;;;26.90;72.50;;;;;;5006376;28;20486;-78
2022/09/08 14:58:55;;;;;;;1.50;0.80;;;26.90;71.60;;;;;;5020067;28;20582;-77
2022/09/08 15:01:46;;;;;;;1.40;0.80;;;27.00;72.20;;;;;;5010085;28;20485;-77
2022/09/08 15:04:21;;;;;;;1.50;0.80;;;27.10;72.00;;;;;;5026904;28;20468;-77
2022/09/08 15:06:59;;;;;;;1.50;0.90;;;27.00;72.10;;;;;;5021038;28;20483;-78
2022/09/08 15:09:42;;;;;;;1.43;0.80;;;26.60;71.40;;;;;;5014902;28;21023;-76
2022/09/08 15:12:33;;;;;;;1.47;0.80;;;26.40;72.60;;;;;;5005085;28;20475;-76
2022/09/08 15:15:17;;;;;;;2.37;1.40;;;26.50;72.70;;;;;;5008797;28;20471;-78
2022/09/08 15:17:56;;;;;;;1.50;0.80;;;26.60;71.40;;;;;;5018444;28;20547;-77
2022/09/08 15:20:43;;;;;;;1.43;0.80;;;26.60;71.10;;;;;;5007775;28;20563;-78
2022/09/08 15:23:33;;;;;;;1.40;0.80;;;26.40;71.50;;;;;;5015798;28;20488;-78
2022/09/08 15:26:17;;;;;;;1.47;0.80;;;26.10;71.40;;;;;;5003013;28;20469;-77
2022/09/08 15:29:21;;;;;;;1.43;0.90;;;25.80;72.90;;;;;;5007532;28;20483;-77